sensor_id;sensor_type;location;lat;lon;timestamp;pressure;altitude;pressure_sealevel;temperature
74043;BMP280;62384;53.600;10.040;2023-02-28T00:00:19;89417.22;;;4.75
74043;BMP280;62384;53.600;10.040;2023-02-28T00:02:45;89588.88;;;4.65
74043;BMP280;62384;53.600;10.040;2023-02-28T00:05:14;89552.00;;;4.94
74043;BMP280;62384;53.600;10.040;2023-02-28T00:07:40;89413.34;;;4.89
74043;BMP280;62384;53.600;10.040;2023-02-28T00:10:06;89196.28;;;4.25
74043;BMP280;62384;53.600;10.040;2023-02-28T00:12:33;89174.97;;;4.78
74043;BMP280;62384;53.600;10.040;2023-02-28T00:14:59;89172.84;;;4.61
74043;BMP280;62384;53.600;10.040;2023-02-28T00:17:24;89688.38;;;4.45
74043;BMP280;62384;53.600;10.040;2023-02-28T00:19:50;89084.66;;;4.58
74043;BMP280;62384;53.600;10.040;2023-02-28T00:22:18;89114.44;;;4.16
74043;BMP280;62384;53.600;10.040;2023-02-28T00:24:44;89202.78;;;4.63
74043;BMP280;62384;53.600;10.040;2023-02-28T00:27:09;89204.81;;;4.65
74043;BMP280;62384;53.600;10.040;2023-02-28T00:29:34;89194.72;;;4.48
74043;BMP280;62384;53.600;10.040;2023-02-28T00:32:00;89282.19;;;4.36
74043;BMP280;62384;53.600;10.040;2023-02-28T00:34:25;89201.88;;;4.59
74043;BMP280;62384;53.600;10.040;2023-02-28T00:36:50;88737.53;;;4.03
74043;BMP280;62384;53.600;10.040;2023-02-28T00:39:16;89036.75;;;4.52
74043;BMP280;62384;53.600;10.040;2023-02-28T00:41:41;89022.06;;;4.49
74043;BMP280;62384;53.600;10.040;2023-02-28T00:44:07;89049.50;;;4.42
74043;BMP280;62384;53.600;10.040;2023-02-28T00:46:32;89177.69;;;4.10
74043;BMP280;62384;53.600;10.040;2023-02-28T00:48:57;89110.88;;;4.52
74043;BMP280;62384;53.600;10.040;2023-02-28T00:51:23;89422.00;;;4.39
74043;BMP280;62384;53.600;10.040;2023-02-28T00:53:48;89156.28;;;4.60
74043;BMP280;62384;53.600;10.040;2023-02-28T00:56:14;89427.63;;;4.71
74043;BMP280;62384;53.600;10.040;2023-02-28T00:58:41;89077.50;;;4.61
74043;BMP280;62384;53.600;10.040;2023-02-28T01:01:06;89510.56;;;4.62
74043;BMP280;62384;53.600;10.040;2023-02-28T01:03:32;88835.59;;;4.23
74043;BMP280;62384;53.600;10.040;2023-02-28T01:05:57;88909.03;;;4.38
74043;BMP280;62384;53.600;10.040;2023-02-28T01:08:23;88867.72;;;4.47
74043;BMP280;62384;53.600;10.040;2023-02-28T01:10:49;88731.28;;;4.12
74043;BMP280;62384;53.600;10.040;2023-02-28T01:13:15;88623.84;;;4.38
74043;BMP280;62384;53.600;10.040;2023-02-28T01:15:43;89040.78;;;4.10
74043;BMP280;62384;53.600;10.040;2023-02-28T01:18:10;88309.84;;;4.27
74043;BMP280;62384;53.600;10.040;2023-02-28T01:20:38;88354.53;;;4.19
74043;BMP280;62384;53.600;10.040;2023-02-28T01:23:04;88639.50;;;4.32
74043;BMP280;62384;53.600;10.040;2023-02-28T01:25:29;88700.59;;;4.38
74043;BMP280;62384;53.600;10.040;2023-02-28T01:27:54;88847.38;;;4.20
74043;BMP280;62384;53.600;10.040;2023-02-28T01:30:20;88610.16;;;4.26
74043;BMP280;62384;53.600;10.040;2023-02-28T01:32:45;88610.78;;;4.09
74043;BMP280;62384;53.600;10.040;2023-02-28T01:35:11;88671.84;;;4.31
74043;BMP280;62384;53.600;10.040;2023-02-28T01:37:36;88765.28;;;4.33
74043;BMP280;62384;53.600;10.040;2023-02-28T01:40:02;88780.19;;;4.11
74043;BMP280;62384;53.600;10.040;2023-02-28T01:42:27;88897.34;;;4.43
74043;BMP280;62384;53.600;10.040;2023-02-28T01:47:42;88857.78;;;4.16
74043;BMP280;62384;53.600;10.040;2023-02-28T01:50:15;88995.53;;;4.33
74043;BMP280;62384;53.600;10.040;2023-02-28T01:52:41;88820.22;;;4.35
74043;BMP280;62384;53.600;10.040;2023-02-28T01:55:10;88769.00;;;4.28
74043;BMP280;62384;53.600;10.040;2023-02-28T01:57:40;88740.16;;;4.34
74043;BMP280;62384;53.600;10.040;2023-02-28T02:00:17;89233.84;;;4.35
74043;BMP280;62384;53.600;10.040;2023-02-28T02:02:46;88772.78;;;4.23
74043;BMP280;62384;53.600;10.040;2023-02-28T02:05:16;88883.41;;;4.27
74043;BMP280;62384;53.600;10.040;2023-02-28T02:07:43;88912.03;;;4.30
74043;BMP280;62384;53.600;10.040;2023-02-28T02:10:29;89242.66;;;4.26
74043;BMP280;62384;53.600;10.040;2023-02-28T02:15:36;88855.31;;;4.35
74043;BMP280;62384;53.600;10.040;2023-02-28T02:18:46;88849.97;;;4.33
74043;BMP280;62384;53.600;10.040;2023-02-28T02:27:18;88698.16;;;4.27
74043;BMP280;62384;53.600;10.040;2023-02-28T02:33:10;88528.41;;;4.17
74043;BMP280;62384;53.600;10.040;2023-02-28T02:35:56;88131.13;;;3.83
74043;BMP280;62384;53.600;10.040;2023-02-28T02:38:39;87929.78;;;3.91
74043;BMP280;62384;53.600;10.040;2023-02-28T02:44:24;87734.03;;;3.87
74043;BMP280;62384;53.600;10.040;2023-02-28T02:46:54;87489.94;;;3.78
74043;BMP280;62384;53.600;10.040;2023-02-28T02:49:29;87047.94;;;3.40
74043;BMP280;62384;53.600;10.040;2023-02-28T02:51:57;87078.09;;;3.64
74043;BMP280;62384;53.600;10.040;2023-02-28T02:54:30;87031.84;;;3.63
74043;BMP280;62384;53.600;10.040;2023-02-28T02:57:01;86627.44;;;3.43
74043;BMP280;62384;53.600;10.040;2023-02-28T02:59:28;86397.69;;;3.43
74043;BMP280;62384;53.600;10.040;2023-02-28T03:01:58;86488.16;;;3.46
74043;BMP280;62384;53.600;10.040;2023-02-28T03:04:29;86326.34;;;3.37
74043;BMP280;62384;53.600;10.040;2023-02-28T03:06:55;85756.78;;;3.21
74043;BMP280;62384;53.600;10.040;2023-02-28T03:09:22;85396.69;;;3.12
74043;BMP280;62384;53.600;10.040;2023-02-28T03:11:48;85620.91;;;3.18
74043;BMP280;62384;53.600;10.040;2023-02-28T03:19:48;85134.56;;;2.79
74043;BMP280;62384;53.600;10.040;2023-02-28T03:22:38;84496.72;;;3.02
74043;BMP280;62384;53.600;10.040;2023-02-28T03:25:07;84547.53;;;3.00
74043;BMP280;62384;53.600;10.040;2023-02-28T03:27:40;84410.47;;;2.96
74043;BMP280;62384;53.600;10.040;2023-02-28T03:30:14;84102.06;;;2.94
74043;BMP280;62384;53.600;10.040;2023-02-28T03:33:10;83937.47;;;2.89
74043;BMP280;62384;53.600;10.040;2023-02-28T03:35:41;83580.56;;;2.82
74043;BMP280;62384;53.600;10.040;2023-02-28T03:38:14;83480.47;;;2.63
74043;BMP280;62384;53.600;10.040;2023-02-28T03:40:47;82770.63;;;2.75
74043;BMP280;62384;53.600;10.040;2023-02-28T03:43:19;82431.69;;;2.72
74043;BMP280;62384;53.600;10.040;2023-02-28T03:45:45;81882.28;;;2.55
74043;BMP280;62384;53.600;10.040;2023-02-28T03:48:23;81518.59;;;2.61
74043;BMP280;62384;53.600;10.040;2023-02-28T03:50:53;81269.13;;;2.62
74043;BMP280;62384;53.600;10.040;2023-02-28T03:53:25;81223.28;;;2.59
74043;BMP280;62384;53.600;10.040;2023-02-28T03:55:57;80696.88;;;2.59
74043;BMP280;62384;53.600;10.040;2023-02-28T04:01:29;80287.78;;;2.43
74043;BMP280;62384;53.600;10.040;2023-02-28T04:03:55;79639.50;;;2.35
74043;BMP280;62384;53.600;10.040;2023-02-28T04:06:22;79718.81;;;2.38
74043;BMP280;62384;53.600;10.040;2023-02-28T04:08:48;79496.06;;;2.36
74043;BMP280;62384;53.600;10.040;2023-02-28T04:11:23;79543.63;;;2.28
74043;BMP280;62384;53.600;10.040;2023-02-28T04:13:49;78877.63;;;2.29
74043;BMP280;62384;53.600;10.040;2023-02-28T04:16:15;78833.28;;;2.21
74043;BMP280;62384;53.600;10.040;2023-02-28T04:18:41;78566.84;;;2.18
74043;BMP280;62384;53.600;10.040;2023-02-28T04:21:08;78331.28;;;2.09
74043;BMP280;62384;53.600;10.040;2023-02-28T04:23:34;78211.44;;;1.90
74043;BMP280;62384;53.600;10.040;2023-02-28T04:26:05;77707.28;;;2.15
74043;BMP280;62384;53.600;10.040;2023-02-28T04:28:32;77651.78;;;2.12
74043;BMP280;62384;53.600;10.040;2023-02-28T04:31:03;77449.50;;;2.12
74043;BMP280;62384;53.600;10.040;2023-02-28T04:33:30;77131.63;;;2.03
74043;BMP280;62384;53.600;10.040;2023-02-28T04:36:05;76822.06;;;2.01
74043;BMP280;62384;53.600;10.040;2023-02-28T04:38:38;76585.78;;;1.97
74043;BMP280;62384;53.600;10.040;2023-02-28T04:41:04;76246.88;;;1.90
74043;BMP280;62384;53.600;10.040;2023-02-28T04:43:30;75763.97;;;1.90
74043;BMP280;62384;53.600;10.040;2023-02-28T04:45:57;75723.38;;;1.93
74043;BMP280;62384;53.600;10.040;2023-02-28T04:48:27;75411.44;;;1.91
74043;BMP280;62384;53.600;10.040;2023-02-28T04:50:53;75443.00;;;1.75
74043;BMP280;62384;53.600;10.040;2023-02-28T04:53:18;75250.13;;;1.72
74043;BMP280;62384;53.600;10.040;2023-02-28T04:55:44;74986.09;;;1.82
74043;BMP280;62384;53.600;10.040;2023-02-28T04:58:11;74981.69;;;1.73
74043;BMP280;62384;53.600;10.040;2023-02-28T05:00:36;75011.78;;;1.70
74043;BMP280;62384;53.600;10.040;2023-02-28T05:03:01;74786.31;;;1.58
74043;BMP280;62384;53.600;10.040;2023-02-28T05:05:26;74812.75;;;1.60
74043;BMP280;62384;53.600;10.040;2023-02-28T05:07:52;74736.50;;;1.58
74043;BMP280;62384;53.600;10.040;2023-02-28T05:10:18;74714.75;;;1.55
74043;BMP280;62384;53.600;10.040;2023-02-28T05:12:44;74628.13;;;1.41
74043;BMP280;62384;53.600;10.040;2023-02-28T05:15:13;74506.50;;;1.21
74043;BMP280;62384;53.600;10.040;2023-02-28T05:17:39;74330.34;;;1.14
74043;BMP280;62384;53.600;10.040;2023-02-28T05:20:05;74155.03;;;1.09
74043;BMP280;62384;53.600;10.040;2023-02-28T05:22:30;74104.91;;;1.18
74043;BMP280;62384;53.600;10.040;2023-02-28T05:24:55;74124.16;;;1.24
74043;BMP280;62384;53.600;10.040;2023-02-28T05:27:21;74087.31;;;1.14
74043;BMP280;62384;53.600;10.040;2023-02-28T05:29:46;74086.53;;;1.04
74043;BMP280;62384;53.600;10.040;2023-02-28T05:32:14;74042.56;;;1.33
74043;BMP280;62384;53.600;10.040;2023-02-28T05:34:39;74210.63;;;1.38
74043;BMP280;62384;53.600;10.040;2023-02-28T05:37:06;74221.47;;;1.22
74043;BMP280;62384;53.600;10.040;2023-02-28T05:39:32;74326.69;;;1.41
74043;BMP280;62384;53.600;10.040;2023-02-28T05:41:57;74262.88;;;1.42
74043;BMP280;62384;53.600;10.040;2023-02-28T05:44:22;74030.63;;;1.13
74043;BMP280;62384;53.600;10.040;2023-02-28T05:46:47;74206.31;;;1.43
74043;BMP280;62384;53.600;10.040;2023-02-28T05:49:13;74312.50;;;1.47
74043;BMP280;62384;53.600;10.040;2023-02-28T05:51:38;74135.94;;;1.06
74043;BMP280;62384;53.600;10.040;2023-02-28T05:54:05;73956.06;;;1.40
74043;BMP280;62384;53.600;10.040;2023-02-28T05:56:31;74060.13;;;1.37
74043;BMP280;62384;53.600;10.040;2023-02-28T05:58:57;74145.88;;;1.41
74043;BMP280;62384;53.600;10.040;2023-02-28T06:01:34;73969.41;;;1.28
74043;BMP280;62384;53.600;10.040;2023-02-28T06:04:00;74092.88;;;1.40
74043;BMP280;62384;53.600;10.040;2023-02-28T06:06:26;74144.38;;;1.28
74043;BMP280;62384;53.600;10.040;2023-02-28T06:08:51;73848.84;;;1.35
74043;BMP280;62384;53.600;10.040;2023-02-28T06:11:16;73821.19;;;1.29
74043;BMP280;62384;53.600;10.040;2023-02-28T06:13:42;73860.72;;;1.18
74043;BMP280;62384;53.600;10.040;2023-02-28T06:16:11;73711.38;;;1.25
74043;BMP280;62384;53.600;10.040;2023-02-28T06:18:37;73734.34;;;0.93
74043;BMP280;62384;53.600;10.040;2023-02-28T06:21:02;73694.00;;;1.16
74043;BMP280;62384;53.600;10.040;2023-02-28T06:23:28;73563.97;;;0.98
74043;BMP280;62384;53.600;10.040;2023-02-28T06:25:53;73415.13;;;0.96
74043;BMP280;62384;53.600;10.040;2023-02-28T06:28:18;73389.88;;;1.11
74043;BMP280;62384;53.600;10.040;2023-02-28T06:30:44;73413.06;;;1.13
74043;BMP280;62384;53.600;10.040;2023-02-28T06:33:09;73635.78;;;1.23
74043;BMP280;62384;53.600;10.040;2023-02-28T06:35:35;73496.94;;;1.23
74043;BMP280;62384;53.600;10.040;2023-02-28T06:38:00;73607.09;;;1.32
74043;BMP280;62384;53.600;10.040;2023-02-28T06:40:25;73376.56;;;1.16
74043;BMP280;62384;53.600;10.040;2023-02-28T06:42:51;73597.59;;;1.24
74043;BMP280;62384;53.600;10.040;2023-02-28T06:45:16;73721.94;;;1.34
74043;BMP280;62384;53.600;10.040;2023-02-28T06:47:42;73685.78;;;1.42
74043;BMP280;62384;53.600;10.040;2023-02-28T06:50:09;73644.63;;;1.38
74043;BMP280;62384;53.600;10.040;2023-02-28T06:52:35;73731.84;;;1.41
74043;BMP280;62384;53.600;10.040;2023-02-28T06:55:07;73704.47;;;1.47
74043;BMP280;62384;53.600;10.040;2023-02-28T06:57:35;73635.59;;;1.44
74043;BMP280;62384;53.600;10.040;2023-02-28T07:00:06;73688.78;;;1.40
74043;BMP280;62384;53.600;10.040;2023-02-28T07:02:33;73341.66;;;1.36
74043;BMP280;62384;53.600;10.040;2023-02-28T07:04:58;73802.53;;;1.48
74043;BMP280;62384;53.600;10.040;2023-02-28T07:07:23;73688.69;;;1.54
74043;BMP280;62384;53.600;10.040;2023-02-28T07:09:49;73900.78;;;1.58
74043;BMP280;62384;53.600;10.040;2023-02-28T07:12:14;73735.53;;;1.49
74043;BMP280;62384;53.600;10.040;2023-02-28T07:14:40;73820.84;;;1.55
74043;BMP280;62384;53.600;10.040;2023-02-28T07:17:07;73679.84;;;1.08
74043;BMP280;62384;53.600;10.040;2023-02-28T07:19:32;73712.84;;;1.54
74043;BMP280;62384;53.600;10.040;2023-02-28T07:21:58;73977.16;;;1.56
74043;BMP280;62384;53.600;10.040;2023-02-28T07:24:23;74121.91;;;1.85
74043;BMP280;62384;53.600;10.040;2023-02-28T07:26:52;74054.78;;;1.86
74043;BMP280;62384;53.600;10.040;2023-02-28T07:29:17;74246.25;;;1.93
74043;BMP280;62384;53.600;10.040;2023-02-28T07:31:42;74406.09;;;1.98
74043;BMP280;62384;53.600;10.040;2023-02-28T07:34:07;74447.34;;;2.02
74043;BMP280;62384;53.600;10.040;2023-02-28T07:36:33;74533.59;;;2.11
74043;BMP280;62384;53.600;10.040;2023-02-28T07:38:58;74651.03;;;2.03
74043;BMP280;62384;53.600;10.040;2023-02-28T07:41:24;74692.72;;;2.12
74043;BMP280;62384;53.600;10.040;2023-02-28T07:43:53;74632.91;;;1.80
74043;BMP280;62384;53.600;10.040;2023-02-28T07:46:21;74654.59;;;2.28
74043;BMP280;62384;53.600;10.040;2023-02-28T07:48:46;74844.91;;;2.31
74043;BMP280;62384;53.600;10.040;2023-02-28T07:51:12;75125.28;;;2.61
74043;BMP280;62384;53.600;10.040;2023-02-28T07:53:37;75356.06;;;2.63
74043;BMP280;62384;53.600;10.040;2023-02-28T07:56:03;75541.50;;;2.74
74043;BMP280;62384;53.600;10.040;2023-02-28T07:58:29;76079.00;;;2.98
74043;BMP280;62384;53.600;10.040;2023-02-28T08:00:54;76790.91;;;3.24
74043;BMP280;62384;53.600;10.040;2023-02-28T08:03:23;76747.13;;;3.09
74043;BMP280;62384;53.600;10.040;2023-02-28T08:05:49;77240.59;;;3.40
74043;BMP280;62384;53.600;10.040;2023-02-28T08:08:16;77273.66;;;3.44
74043;BMP280;62384;53.600;10.040;2023-02-28T08:10:50;77591.81;;;3.37
74043;BMP280;62384;53.600;10.040;2023-02-28T08:13:28;77966.06;;;3.48
74043;BMP280;62384;53.600;10.040;2023-02-28T08:15:54;78347.88;;;3.33
74043;BMP280;62384;53.600;10.040;2023-02-28T08:18:20;78472.88;;;3.76
74043;BMP280;62384;53.600;10.040;2023-02-28T08:20:45;78771.44;;;3.86
74043;BMP280;62384;53.600;10.040;2023-02-28T08:23:10;79193.53;;;3.88
74043;BMP280;62384;53.600;10.040;2023-02-28T08:25:36;79915.84;;;4.01
74043;BMP280;62384;53.600;10.040;2023-02-28T08:28:01;80420.72;;;4.17
74043;BMP280;62384;53.600;10.040;2023-02-28T08:30:27;81111.06;;;4.29
74043;BMP280;62384;53.600;10.040;2023-02-28T08:32:52;82634.97;;;4.43
74043;BMP280;62384;53.600;10.040;2023-02-28T08:35:17;83480.09;;;4.49
74043;BMP280;62384;53.600;10.040;2023-02-28T08:37:42;83716.53;;;4.66
74043;BMP280;62384;53.600;10.040;2023-02-28T08:40:08;85016.34;;;4.86
74043;BMP280;62384;53.600;10.040;2023-02-28T08:42:34;87549.03;;;4.80
74043;BMP280;62384;53.600;10.040;2023-02-28T08:44:59;87522.19;;;4.95
74043;BMP280;62384;53.600;10.040;2023-02-28T08:47:24;92690.53;;;5.12
74043;BMP280;62384;53.600;10.040;2023-02-28T08:49:50;94177.06;;;5.23
74043;BMP280;62384;53.600;10.040;2023-02-28T08:52:15;97282.25;;;5.53
74043;BMP280;62384;53.600;10.040;2023-02-28T08:54:41;99061.06;;;5.61
74043;BMP280;62384;53.600;10.040;2023-02-28T08:57:06;98686.88;;;5.56
74043;BMP280;62384;53.600;10.040;2023-02-28T08:59:31;100244.69;;;5.86
74043;BMP280;62384;53.600;10.040;2023-02-28T09:01:57;101960.84;;;5.95
74043;BMP280;62384;53.600;10.040;2023-02-28T09:04:22;100917.81;;;5.99
74043;BMP280;62384;53.600;10.040;2023-02-28T09:06:47;103016.25;;;6.38
74043;BMP280;62384;53.600;10.040;2023-02-28T09:09:14;103421.47;;;6.51
74043;BMP280;62384;53.600;10.040;2023-02-28T09:11:39;104153.00;;;6.79
74043;BMP280;62384;53.600;10.040;2023-02-28T09:14:04;105123.78;;;6.98
74043;BMP280;62384;53.600;10.040;2023-02-28T09:16:31;103271.09;;;7.03
74043;BMP280;62384;53.600;10.040;2023-02-28T09:18:57;101042.31;;;6.59
74043;BMP280;62384;53.600;10.040;2023-02-28T09:21:23;102053.09;;;7.16
74043;BMP280;62384;53.600;10.040;2023-02-28T09:23:49;103103.53;;;7.49
74043;BMP280;62384;53.600;10.040;2023-02-28T09:26:17;102831.88;;;7.53
74043;BMP280;62384;53.600;10.040;2023-02-28T09:28:43;103282.38;;;7.45
74043;BMP280;62384;53.600;10.040;2023-02-28T09:31:15;103686.59;;;7.79
74043;BMP280;62384;53.600;10.040;2023-02-28T09:33:41;103502.53;;;7.76
74043;BMP280;62384;53.600;10.040;2023-02-28T09:36:07;103454.41;;;7.86
74043;BMP280;62384;53.600;10.040;2023-02-28T09:38:33;102579.34;;;7.92
74043;BMP280;62384;53.600;10.040;2023-02-28T09:41:04;101164.50;;;7.60
74043;BMP280;62384;53.600;10.040;2023-02-28T09:43:38;104173.81;;;7.99
74043;BMP280;62384;53.600;10.040;2023-02-28T09:48:47;103253.44;;;8.13
74043;BMP280;62384;53.600;10.040;2023-02-28T09:52:07;103529.91;;;8.18
74043;BMP280;62384;53.600;10.040;2023-02-28T09:54:15;110434.78;;;9.35
74043;BMP280;62384;53.600;10.040;2023-02-28T09:56:45;120661.69;;;12.43
74043;BMP280;62384;53.600;10.040;2023-02-28T09:59:37;124500.94;;;14.32
74043;BMP280;62384;53.600;10.040;2023-02-28T10:02:36;125784.59;;;15.54
74043;BMP280;62384;53.600;10.040;2023-02-28T10:05:14;124396.16;;;15.59
74043;BMP280;62384;53.600;10.040;2023-02-28T10:10:24;130568.97;;;18.45
74043;BMP280;62384;53.600;10.040;2023-02-28T10:12:54;124839.28;;;17.88
74043;BMP280;62384;53.600;10.040;2023-02-28T10:15:23;124562.41;;;18.26
74043;BMP280;62384;53.600;10.040;2023-02-28T10:17:54;123088.88;;;17.89
74043;BMP280;62384;53.600;10.040;2023-02-28T10:20:23;119116.09;;;17.23
74043;BMP280;62384;53.600;10.040;2023-02-28T10:25:38;122466.25;;;18.30
74043;BMP280;62384;53.600;10.040;2023-02-28T10:30:32;121069.13;;;18.33
74043;BMP280;62384;53.600;10.040;2023-02-28T10:32:58;121085.13;;;18.41
74043;BMP280;62384;53.600;10.040;2023-02-28T10:35:26;121858.91;;;18.80
74043;BMP280;62384;53.600;10.040;2023-02-28T10:37:57;117574.75;;;18.37
74043;BMP280;62384;53.600;10.040;2023-02-28T10:42:56;114654.69;;;17.68
74043;BMP280;62384;53.600;10.040;2023-02-28T10:45:22;117570.22;;;18.34
74043;BMP280;62384;53.600;10.040;2023-02-28T10:47:51;114392.16;;;18.17
74043;BMP280;62384;53.600;10.040;2023-02-28T10:55:35;115556.03;;;18.82
74043;BMP280;62384;53.600;10.040;2023-02-28T10:58:01;110186.78;;;18.09
74043;BMP280;62384;53.600;10.040;2023-02-28T11:00:33;111311.03;;;18.54
74043;BMP280;62384;53.600;10.040;2023-02-28T11:02:59;112336.69;;;18.41
74043;BMP280;62384;53.600;10.040;2023-02-28T11:07:54;106844.72;;;17.71
74043;BMP280;62384;53.600;10.040;2023-02-28T11:10:21;103156.09;;;16.94
74043;BMP280;62384;53.600;10.040;2023-02-28T11:12:48;111737.00;;;18.99
74043;BMP280;62384;53.600;10.040;2023-02-28T11:17:54;113994.63;;;19.90
74043;BMP280;62384;53.600;10.040;2023-02-28T11:20:25;114509.13;;;20.83
74043;BMP280;62384;53.600;10.040;2023-02-28T11:22:51;105467.16;;;18.73
74043;BMP280;62384;53.600;10.040;2023-02-28T11:25:32;107339.84;;;18.99
74043;BMP280;62384;53.600;10.040;2023-02-28T11:28:00;104271.72;;;18.46
74043;BMP280;62384;53.600;10.040;2023-02-28T11:30:37;104254.75;;;18.49
74043;BMP280;62384;53.600;10.040;2023-02-28T11:33:54;104679.97;;;18.51
74043;BMP280;62384;53.600;10.040;2023-02-28T11:36:25;99534.31;;;17.27
74043;BMP280;62384;53.600;10.040;2023-02-28T11:38:53;98265.69;;;16.89
74043;BMP280;62384;53.600;10.040;2023-02-28T11:41:45;95679.41;;;15.98
74043;BMP280;62384;53.600;10.040;2023-02-28T11:47:34;95541.91;;;16.07
74043;BMP280;62384;53.600;10.040;2023-02-28T11:50:11;95216.47;;;15.84
74043;BMP280;62384;53.600;10.040;2023-02-28T11:52:45;95928.19;;;15.63
74043;BMP280;62384;53.600;10.040;2023-02-28T11:58:05;95108.75;;;15.68
74043;BMP280;62384;53.600;10.040;2023-02-28T12:00:54;93351.25;;;15.13
74043;BMP280;62384;53.600;10.040;2023-02-28T12:08:48;98244.84;;;17.04
74043;BMP280;62384;53.600;10.040;2023-02-28T12:11:48;96854.69;;;16.65
74043;BMP280;62384;53.600;10.040;2023-02-28T12:17:29;91575.22;;;14.79
74043;BMP280;62384;53.600;10.040;2023-02-28T12:23:15;91167.72;;;14.63
74043;BMP280;62384;53.600;10.040;2023-02-28T12:28:45;91812.13;;;14.36
74043;BMP280;62384;53.600;10.040;2023-02-28T12:31:18;92632.84;;;14.87
74043;BMP280;62384;53.600;10.040;2023-02-28T12:33:48;92226.28;;;14.84
74043;BMP280;62384;53.600;10.040;2023-02-28T12:36:17;93157.06;;;15.22
74043;BMP280;62384;53.600;10.040;2023-02-28T12:38:48;92913.38;;;15.29
74043;BMP280;62384;53.600;10.040;2023-02-28T12:41:17;92206.09;;;14.96
74043;BMP280;62384;53.600;10.040;2023-02-28T12:44:06;93275.78;;;15.42
74043;BMP280;62384;53.600;10.040;2023-02-28T12:46:45;93235.44;;;15.72
74043;BMP280;62384;53.600;10.040;2023-02-28T12:49:22;91402.81;;;14.49
74043;BMP280;62384;53.600;10.040;2023-02-28T12:51:49;91631.44;;;14.71
74043;BMP280;62384;53.600;10.040;2023-02-28T12:54:24;93896.00;;;15.68
74043;BMP280;62384;53.600;10.040;2023-02-28T12:57:10;95543.69;;;16.31
74043;BMP280;62384;53.600;10.040;2023-02-28T12:59:41;95087.19;;;16.30
74043;BMP280;62384;53.600;10.040;2023-02-28T13:02:35;95085.91;;;16.31
74043;BMP280;62384;53.600;10.040;2023-02-28T13:05:37;94215.47;;;15.93
74043;BMP280;62384;53.600;10.040;2023-02-28T13:08:26;95204.50;;;16.27
74043;BMP280;62384;53.600;10.040;2023-02-28T13:10:53;94833.50;;;16.21
74043;BMP280;62384;53.600;10.040;2023-02-28T13:13:24;97628.09;;;17.38
74043;BMP280;62384;53.600;10.040;2023-02-28T13:16:15;93778.44;;;16.01
74043;BMP280;62384;53.600;10.040;2023-02-28T13:18:45;92448.66;;;15.17
74043;BMP280;62384;53.600;10.040;2023-02-28T13:21:24;93090.25;;;15.61
74043;BMP280;62384;53.600;10.040;2023-02-28T13:26:21;93032.84;;;15.70
74043;BMP280;62384;53.600;10.040;2023-02-28T13:29:02;93769.16;;;16.21
74043;BMP280;62384;53.600;10.040;2023-02-28T13:31:29;92007.25;;;15.34
74043;BMP280;62384;53.600;10.040;2023-02-28T13:36:25;92630.84;;;15.42
74043;BMP280;62384;53.600;10.040;2023-02-28T13:38:58;92119.59;;;15.29
74043;BMP280;62384;53.600;10.040;2023-02-28T13:44:23;92039.50;;;15.06
74043;BMP280;62384;53.600;10.040;2023-02-28T13:51:49;89110.03;;;13.86
74043;BMP280;62384;53.600;10.040;2023-02-28T14:02:57;88094.97;;;13.40
74043;BMP280;62384;53.600;10.040;2023-02-28T14:05:27;88420.59;;;13.49
74043;BMP280;62384;53.600;10.040;2023-02-28T14:07:57;89837.09;;;14.42
74043;BMP280;62384;53.600;10.040;2023-02-28T14:10:28;89391.78;;;13.98
74043;BMP280;62384;53.600;10.040;2023-02-28T14:16:02;89026.22;;;14.10
74043;BMP280;62384;53.600;10.040;2023-02-28T14:18:40;88763.84;;;13.68
74043;BMP280;62384;53.600;10.040;2023-02-28T14:21:25;88321.88;;;13.45
74043;BMP280;62384;53.600;10.040;2023-02-28T14:24:01;89440.22;;;14.00
74043;BMP280;62384;53.600;10.040;2023-02-28T14:32:58;89820.56;;;14.56
74043;BMP280;62384;53.600;10.040;2023-02-28T14:38:42;88205.59;;;13.83
74043;BMP280;62384;53.600;10.040;2023-02-28T14:41:37;86259.06;;;12.72
74043;BMP280;62384;53.600;10.040;2023-02-28T14:44:26;86322.69;;;12.02
74043;BMP280;62384;53.600;10.040;2023-02-28T14:46:54;85338.75;;;11.88
74043;BMP280;62384;53.600;10.040;2023-02-28T14:49:26;84683.81;;;11.51
74043;BMP280;62384;53.600;10.040;2023-02-28T14:52:03;84535.09;;;10.93
74043;BMP280;62384;53.600;10.040;2023-02-28T14:54:31;84097.72;;;10.70
74043;BMP280;62384;53.600;10.040;2023-02-28T14:56:56;83744.16;;;10.25
74043;BMP280;62384;53.600;10.040;2023-02-28T14:59:32;83541.53;;;10.44
74043;BMP280;62384;53.600;10.040;2023-02-28T15:02:24;83695.16;;;10.52
74043;BMP280;62384;53.600;10.040;2023-02-28T15:04:54;83695.16;;;10.52
74043;BMP280;62384;53.600;10.040;2023-02-28T15:07:20;83879.31;;;10.29
74043;BMP280;62384;53.600;10.040;2023-02-28T15:10:10;83602.75;;;10.46
74043;BMP280;62384;53.600;10.040;2023-02-28T15:12:36;83432.41;;;10.30
74043;BMP280;62384;53.600;10.040;2023-02-28T15:15:02;83281.56;;;10.03
74043;BMP280;62384;53.600;10.040;2023-02-28T15:17:28;83182.31;;;10.02
74043;BMP280;62384;53.600;10.040;2023-02-28T15:19:54;83186.44;;;10.10
74043;BMP280;62384;53.600;10.040;2023-02-28T15:22:35;83355.06;;;10.11
74043;BMP280;62384;53.600;10.040;2023-02-28T15:25:02;83351.47;;;10.14
74043;BMP280;62384;53.600;10.040;2023-02-28T15:27:33;83486.06;;;10.26
74043;BMP280;62384;53.600;10.040;2023-02-28T15:30:04;83622.34;;;10.22
74043;BMP280;62384;53.600;10.040;2023-02-28T15:34:56;82972.16;;;9.69
74043;BMP280;62384;53.600;10.040;2023-02-28T15:38:03;83150.66;;;9.50
74043;BMP280;62384;53.600;10.040;2023-02-28T15:40:29;83349.78;;;9.60
74043;BMP280;62384;53.600;10.040;2023-02-28T15:43:17;83416.84;;;9.83
74043;BMP280;62384;53.600;10.040;2023-02-28T15:45:48;83283.75;;;9.71
74043;BMP280;62384;53.600;10.040;2023-02-28T15:48:34;83166.97;;;9.54
74043;BMP280;62384;53.600;10.040;2023-02-28T15:53:47;82921.38;;;9.43
74043;BMP280;62384;53.600;10.040;2023-02-28T15:56:25;82872.94;;;9.32
74043;BMP280;62384;53.600;10.040;2023-02-28T15:59:00;82946.41;;;9.37
74043;BMP280;62384;53.600;10.040;2023-02-28T16:01:31;83047.81;;;9.44
74043;BMP280;62384;53.600;10.040;2023-02-28T16:04:01;83380.91;;;9.31
74043;BMP280;62384;53.600;10.040;2023-02-28T16:06:36;82811.94;;;9.19
74043;BMP280;62384;53.600;10.040;2023-02-28T16:09:03;82842.75;;;9.16